sensor_id;sensor_type;location;lat;lon;timestamp;temperature;humidity
17442;DHT22;8838;50.144;8.176;2023-02-13T00:00:28;5.90;99.90
17442;DHT22;8838;50.144;8.176;2023-02-13T00:02:57;6.00;99.90
17442;DHT22;8838;50.144;8.176;2023-02-13T00:05:23;5.90;99.90
17442;DHT22;8838;50.144;8.176;2023-02-13T00:07:50;5.90;99.90
17442;DHT22;8838;50.144;8.176;2023-02-13T00:10:17;5.80;99.90
17442;DHT22;8838;50.144;8.176;2023-02-13T00:12:44;5.90;99.90
17442;DHT22;8838;50.144;8.176;2023-02-13T00:15:11;5.90;99.90
17442;DHT22;8838;50.144;8.176;2023-02-13T00:17:38;5.80;99.90
17442;DHT22;8838;50.144;8.176;2023-02-13T00:20:08;5.70;99.90
17442;DHT22;8838;50.144;8.176;2023-02-13T00:22:36;5.60;99.90
17442;DHT22;8838;50.144;8.176;2023-02-13T00:25:03;5.60;99.90
17442;DHT22;8838;50.144;8.176;2023-02-13T00:27:30;5.60;99.90
17442;DHT22;8838;50.144;8.176;2023-02-13T00:29:57;5.60;99.90
17442;DHT22;8838;50.144;8.176;2023-02-13T00:32:24;5.50;99.90
17442;DHT22;8838;50.144;8.176;2023-02-13T00:34:51;5.50;99.90
17442;DHT22;8838;50.144;8.176;2023-02-13T00:37:20;5.40;99.90
17442;DHT22;8838;50.144;8.176;2023-02-13T00:39:46;5.30;99.90
17442;DHT22;8838;50.144;8.176;2023-02-13T00:42:13;5.30;99.90
17442;DHT22;8838;50.144;8.176;2023-02-13T00:44:40;5.20;99.90
17442;DHT22;8838;50.144;8.176;2023-02-13T00:47:07;5.10;99.90
17442;DHT22;8838;50.144;8.176;2023-02-13T00:49:34;5.10;99.90
17442;DHT22;8838;50.144;8.176;2023-02-13T00:52:01;5.00;99.90
17442;DHT22;8838;50.144;8.176;2023-02-13T00:54:29;5.00;99.90
17442;DHT22;8838;50.144;8.176;2023-02-13T00:56:56;4.90;99.90
17442;DHT22;8838;50.144;8.176;2023-02-13T00:59:22;4.90;99.90
17442;DHT22;8838;50.144;8.176;2023-02-13T01:01:49;4.80;99.90
17442;DHT22;8838;50.144;8.176;2023-02-13T01:04:16;4.90;99.90
17442;DHT22;8838;50.144;8.176;2023-02-13T01:06:43;4.80;99.90
17442;DHT22;8838;50.144;8.176;2023-02-13T01:09:10;4.80;99.90
17442;DHT22;8838;50.144;8.176;2023-02-13T01:11:38;4.70;99.90
17442;DHT22;8838;50.144;8.176;2023-02-13T01:14:05;4.70;99.90
17442;DHT22;8838;50.144;8.176;2023-02-13T01:16:32;4.70;99.90
17442;DHT22;8838;50.144;8.176;2023-02-13T01:18:58;4.70;99.90
17442;DHT22;8838;50.144;8.176;2023-02-13T01:21:25;4.70;99.90
17442;DHT22;8838;50.144;8.176;2023-02-13T01:23:52;4.70;99.90
17442;DHT22;8838;50.144;8.176;2023-02-13T01:26:20;4.60;99.90
17442;DHT22;8838;50.144;8.176;2023-02-13T01:28:51;4.50;99.90
17442;DHT22;8838;50.144;8.176;2023-02-13T01:31:18;4.40;99.90
17442;DHT22;8838;50.144;8.176;2023-02-13T01:33:45;4.40;99.90
17442;DHT22;8838;50.144;8.176;2023-02-13T01:36:12;4.30;99.90
17442;DHT22;8838;50.144;8.176;2023-02-13T01:38:40;4.20;99.90
17442;DHT22;8838;50.144;8.176;2023-02-13T01:41:08;4.20;99.90
17442;DHT22;8838;50.144;8.176;2023-02-13T01:43:47;4.30;99.90
17442;DHT22;8838;50.144;8.176;2023-02-13T01:46:21;4.20;99.90
17442;DHT22;8838;50.144;8.176;2023-02-13T01:48:50;4.20;99.90
17442;DHT22;8838;50.144;8.176;2023-02-13T01:51:22;4.10;99.90
17442;DHT22;8838;50.144;8.176;2023-02-13T01:53:55;4.10;99.90
17442;DHT22;8838;50.144;8.176;2023-02-13T01:56:27;4.10;99.90
17442;DHT22;8838;50.144;8.176;2023-02-13T01:58:56;4.20;99.90
17442;DHT22;8838;50.144;8.176;2023-02-13T02:01:26;4.10;99.90
17442;DHT22;8838;50.144;8.176;2023-02-13T02:03:55;4.10;99.90
17442;DHT22;8838;50.144;8.176;2023-02-13T02:06:26;4.10;99.90
17442;DHT22;8838;50.144;8.176;2023-02-13T02:08:55;4.00;99.90
17442;DHT22;8838;50.144;8.176;2023-02-13T02:11:29;4.00;99.90
17442;DHT22;8838;50.144;8.176;2023-02-13T02:13:58;3.90;99.90
17442;DHT22;8838;50.144;8.176;2023-02-13T02:16:28;3.80;99.90
17442;DHT22;8838;50.144;8.176;2023-02-13T02:18:55;3.80;99.90
17442;DHT22;8838;50.144;8.176;2023-02-13T02:33:41;3.90;99.90
17442;DHT22;8838;50.144;8.176;2023-02-13T02:36:22;4.10;99.90
17442;DHT22;8838;50.144;8.176;2023-02-13T02:39:04;4.10;99.90
17442;DHT22;8838;50.144;8.176;2023-02-13T02:41:45;4.10;99.90
17442;DHT22;8838;50.144;8.176;2023-02-13T02:44:20;4.10;99.90
17442;DHT22;8838;50.144;8.176;2023-02-13T02:46:57;4.10;99.90
17442;DHT22;8838;50.144;8.176;2023-02-13T02:49:53;4.00;99.90
17442;DHT22;8838;50.144;8.176;2023-02-13T02:52:31;4.00;99.90
17442;DHT22;8838;50.144;8.176;2023-02-13T02:55:03;4.00;99.90
17442;DHT22;8838;50.144;8.176;2023-02-13T02:57:39;3.90;99.90
17442;DHT22;8838;50.144;8.176;2023-02-13T03:00:25;3.90;99.90
17442;DHT22;8838;50.144;8.176;2023-02-13T03:03:16;3.80;99.90
17442;DHT22;8838;50.144;8.176;2023-02-13T03:06:05;3.70;99.90
17442;DHT22;8838;50.144;8.176;2023-02-13T03:08:41;3.70;99.90
17442;DHT22;8838;50.144;8.176;2023-02-13T03:11:26;3.60;99.90
17442;DHT22;8838;50.144;8.176;2023-02-13T03:14:13;3.60;99.90
17442;DHT22;8838;50.144;8.176;2023-02-13T03:16:40;3.60;99.90
17442;DHT22;8838;50.144;8.176;2023-02-13T03:19:33;3.60;99.90
17442;DHT22;8838;50.144;8.176;2023-02-13T03:22:29;3.50;99.90
17442;DHT22;8838;50.144;8.176;2023-02-13T03:25:06;3.50;99.90
17442;DHT22;8838;50.144;8.176;2023-02-13T03:27:42;3.40;99.90
17442;DHT22;8838;50.144;8.176;2023-02-13T03:30:35;3.50;99.90
17442;DHT22;8838;50.144;8.176;2023-02-13T03:33:15;3.30;99.90
17442;DHT22;8838;50.144;8.176;2023-02-13T03:35:48;3.40;99.90
17442;DHT22;8838;50.144;8.176;2023-02-13T03:38:39;3.30;99.90
17442;DHT22;8838;50.144;8.176;2023-02-13T03:41:13;3.30;99.90
17442;DHT22;8838;50.144;8.176;2023-02-13T03:43:51;3.30;99.90
17442;DHT22;8838;50.144;8.176;2023-02-13T03:46:19;3.30;99.90
17442;DHT22;8838;50.144;8.176;2023-02-13T03:48:46;3.30;99.90
17442;DHT22;8838;50.144;8.176;2023-02-13T03:51:35;3.30;99.90
17442;DHT22;8838;50.144;8.176;2023-02-13T03:54:10;3.30;99.90
17442;DHT22;8838;50.144;8.176;2023-02-13T03:56:40;3.40;99.90
17442;DHT22;8838;50.144;8.176;2023-02-13T03:59:29;3.30;99.90
17442;DHT22;8838;50.144;8.176;2023-02-13T04:02:00;3.30;99.90
17442;DHT22;8838;50.144;8.176;2023-02-13T04:04:34;3.30;99.90
17442;DHT22;8838;50.144;8.176;2023-02-13T04:07:06;3.20;99.90
17442;DHT22;8838;50.144;8.176;2023-02-13T04:09:37;3.20;99.90
17442;DHT22;8838;50.144;8.176;2023-02-13T04:12:11;3.10;99.90
17442;DHT22;8838;50.144;8.176;2023-02-13T04:14:44;3.10;99.90
17442;DHT22;8838;50.144;8.176;2023-02-13T04:17:18;3.10;99.90
17442;DHT22;8838;50.144;8.176;2023-02-13T04:19:48;3.10;99.90
17442;DHT22;8838;50.144;8.176;2023-02-13T04:22:15;3.00;99.90
17442;DHT22;8838;50.144;8.176;2023-02-13T04:24:43;3.10;99.90
17442;DHT22;8838;50.144;8.176;2023-02-13T04:27:12;3.00;99.90
17442;DHT22;8838;50.144;8.176;2023-02-13T04:29:40;2.90;99.90
17442;DHT22;8838;50.144;8.176;2023-02-13T04:32:07;2.90;99.90
17442;DHT22;8838;50.144;8.176;2023-02-13T04:34:34;2.80;99.90
17442;DHT22;8838;50.144;8.176;2023-02-13T04:37:01;2.80;99.90
17442;DHT22;8838;50.144;8.176;2023-02-13T04:39:28;2.80;99.90
17442;DHT22;8838;50.144;8.176;2023-02-13T04:41:56;2.70;99.90
17442;DHT22;8838;50.144;8.176;2023-02-13T04:44:23;2.70;99.90
17442;DHT22;8838;50.144;8.176;2023-02-13T04:46:50;2.60;99.90
17442;DHT22;8838;50.144;8.176;2023-02-13T04:49:17;2.60;99.90
17442;DHT22;8838;50.144;8.176;2023-02-13T04:51:43;2.70;99.90
17442;DHT22;8838;50.144;8.176;2023-02-13T04:54:10;2.70;99.90
17442;DHT22;8838;50.144;8.176;2023-02-13T04:56:37;2.70;99.90
17442;DHT22;8838;50.144;8.176;2023-02-13T04:59:05;2.60;99.90
17442;DHT22;8838;50.144;8.176;2023-02-13T05:01:32;2.50;99.90
17442;DHT22;8838;50.144;8.176;2023-02-13T05:03:59;2.50;99.90
17442;DHT22;8838;50.144;8.176;2023-02-13T05:06:26;2.50;99.90
17442;DHT22;8838;50.144;8.176;2023-02-13T05:08:53;2.40;99.90
17442;DHT22;8838;50.144;8.176;2023-02-13T05:11:19;2.40;99.90
17442;DHT22;8838;50.144;8.176;2023-02-13T05:13:46;2.40;99.90
17442;DHT22;8838;50.144;8.176;2023-02-13T05:16:14;2.40;99.90
17442;DHT22;8838;50.144;8.176;2023-02-13T05:18:41;2.40;99.90
17442;DHT22;8838;50.144;8.176;2023-02-13T05:21:08;2.40;99.90
17442;DHT22;8838;50.144;8.176;2023-02-13T05:23:52;2.40;99.90
17442;DHT22;8838;50.144;8.176;2023-02-13T05:26:19;2.40;99.90
17442;DHT22;8838;50.144;8.176;2023-02-13T05:28:45;2.40;99.90
17442;DHT22;8838;50.144;8.176;2023-02-13T05:31:31;2.30;99.90
17442;DHT22;8838;50.144;8.176;2023-02-13T05:33:58;2.30;99.90
17442;DHT22;8838;50.144;8.176;2023-02-13T05:36:25;2.30;99.90
17442;DHT22;8838;50.144;8.176;2023-02-13T05:38:52;2.30;99.90
17442;DHT22;8838;50.144;8.176;2023-02-13T05:41:19;2.30;99.90
17442;DHT22;8838;50.144;8.176;2023-02-13T05:43:46;2.30;99.90
17442;DHT22;8838;50.144;8.176;2023-02-13T05:46:12;2.30;99.90
17442;DHT22;8838;50.144;8.176;2023-02-13T05:48:41;2.20;99.90
17442;DHT22;8838;50.144;8.176;2023-02-13T05:51:07;2.20;99.90
17442;DHT22;8838;50.144;8.176;2023-02-13T05:53:34;2.20;99.90
17442;DHT22;8838;50.144;8.176;2023-02-13T05:56:01;2.20;99.90
17442;DHT22;8838;50.144;8.176;2023-02-13T05:58:29;2.10;99.90
17442;DHT22;8838;50.144;8.176;2023-02-13T06:00:56;2.10;99.90
17442;DHT22;8838;50.144;8.176;2023-02-13T06:03:23;2.10;99.90
17442;DHT22;8838;50.144;8.176;2023-02-13T06:05:52;2.00;99.90
17442;DHT22;8838;50.144;8.176;2023-02-13T06:08:20;2.00;99.90
17442;DHT22;8838;50.144;8.176;2023-02-13T06:10:46;2.10;99.90
17442;DHT22;8838;50.144;8.176;2023-02-13T06:13:14;2.20;99.90
17442;DHT22;8838;50.144;8.176;2023-02-13T06:15:41;2.30;99.90
17442;DHT22;8838;50.144;8.176;2023-02-13T06:18:08;2.30;99.90
17442;DHT22;8838;50.144;8.176;2023-02-13T06:20:35;2.50;99.90
17442;DHT22;8838;50.144;8.176;2023-02-13T06:23:04;2.60;99.90
17442;DHT22;8838;50.144;8.176;2023-02-13T06:25:30;2.70;99.90
17442;DHT22;8838;50.144;8.176;2023-02-13T06:27:57;2.80;99.90
17442;DHT22;8838;50.144;8.176;2023-02-13T06:30:24;2.80;99.90
17442;DHT22;8838;50.144;8.176;2023-02-13T06:32:51;2.70;99.90
17442;DHT22;8838;50.144;8.176;2023-02-13T06:35:18;2.70;99.90
17442;DHT22;8838;50.144;8.176;2023-02-13T06:37:45;2.80;99.90
17442;DHT22;8838;50.144;8.176;2023-02-13T06:40:14;2.80;99.90
17442;DHT22;8838;50.144;8.176;2023-02-13T06:42:42;2.80;99.90
17442;DHT22;8838;50.144;8.176;2023-02-13T06:45:10;2.80;99.90
17442;DHT22;8838;50.144;8.176;2023-02-13T06:47:40;2.80;99.90
17442;DHT22;8838;50.144;8.176;2023-02-13T06:50:08;2.80;99.90
17442;DHT22;8838;50.144;8.176;2023-02-13T06:52:35;2.80;99.90
17442;DHT22;8838;50.144;8.176;2023-02-13T06:55:02;2.80;99.90
17442;DHT22;8838;50.144;8.176;2023-02-13T06:57:31;2.80;99.90
17442;DHT22;8838;50.144;8.176;2023-02-13T06:59:58;2.90;99.90
17442;DHT22;8838;50.144;8.176;2023-02-13T07:02:25;2.90;99.90
17442;DHT22;8838;50.144;8.176;2023-02-13T07:04:52;2.90;99.90
17442;DHT22;8838;50.144;8.176;2023-02-13T07:07:18;2.90;99.90
17442;DHT22;8838;50.144;8.176;2023-02-13T07:09:45;2.90;99.90
17442;DHT22;8838;50.144;8.176;2023-02-13T07:12:12;3.00;99.90
17442;DHT22;8838;50.144;8.176;2023-02-13T07:14:40;3.00;99.90
17442;DHT22;8838;50.144;8.176;2023-02-13T07:17:07;3.00;99.90
17442;DHT22;8838;50.144;8.176;2023-02-13T07:19:35;3.00;99.90
17442;DHT22;8838;50.144;8.176;2023-02-13T07:22:02;3.00;99.90
17442;DHT22;8838;50.144;8.176;2023-02-13T07:24:29;3.10;99.90
17442;DHT22;8838;50.144;8.176;2023-02-13T07:26:58;3.10;99.90
17442;DHT22;8838;50.144;8.176;2023-02-13T07:29:24;3.10;99.90
17442;DHT22;8838;50.144;8.176;2023-02-13T07:31:52;3.00;99.90
17442;DHT22;8838;50.144;8.176;2023-02-13T07:34:19;2.80;99.90
17442;DHT22;8838;50.144;8.176;2023-02-13T07:36:46;2.90;99.90
17442;DHT22;8838;50.144;8.176;2023-02-13T07:39:13;2.80;99.90
17442;DHT22;8838;50.144;8.176;2023-02-13T07:41:40;3.00;99.90
17442;DHT22;8838;50.144;8.176;2023-02-13T07:44:06;2.90;99.90
17442;DHT22;8838;50.144;8.176;2023-02-13T07:46:33;2.90;99.90
17442;DHT22;8838;50.144;8.176;2023-02-13T07:49:02;2.90;99.90
17442;DHT22;8838;50.144;8.176;2023-02-13T07:51:29;2.80;99.90
17442;DHT22;8838;50.144;8.176;2023-02-13T07:53:55;2.80;99.90
17442;DHT22;8838;50.144;8.176;2023-02-13T07:56:22;2.90;99.90
17442;DHT22;8838;50.144;8.176;2023-02-13T07:58:49;2.90;99.90
17442;DHT22;8838;50.144;8.176;2023-02-13T08:01:16;3.10;99.90
17442;DHT22;8838;50.144;8.176;2023-02-13T08:03:47;3.10;99.90
17442;DHT22;8838;50.144;8.176;2023-02-13T08:06:17;3.20;99.90
17442;DHT22;8838;50.144;8.176;2023-02-13T08:08:44;3.20;99.90
17442;DHT22;8838;50.144;8.176;2023-02-13T08:11:21;3.20;99.90
17442;DHT22;8838;50.144;8.176;2023-02-13T08:14:07;3.30;99.90
17442;DHT22;8838;50.144;8.176;2023-02-13T08:16:34;3.30;99.90
17442;DHT22;8838;50.144;8.176;2023-02-13T08:19:00;3.30;99.90
17442;DHT22;8838;50.144;8.176;2023-02-13T08:21:29;3.30;99.90
17442;DHT22;8838;50.144;8.176;2023-02-13T08:23:56;3.50;99.90
17442;DHT22;8838;50.144;8.176;2023-02-13T08:26:23;3.70;99.90
17442;DHT22;8838;50.144;8.176;2023-02-13T08:28:50;3.80;99.90
17442;DHT22;8838;50.144;8.176;2023-02-13T08:31:16;3.90;99.90
17442;DHT22;8838;50.144;8.176;2023-02-13T08:33:43;4.00;99.90
17442;DHT22;8838;50.144;8.176;2023-02-13T08:36:10;4.10;99.90
17442;DHT22;8838;50.144;8.176;2023-02-13T08:38:38;4.20;99.90
17442;DHT22;8838;50.144;8.176;2023-02-13T08:41:05;4.30;99.90
17442;DHT22;8838;50.144;8.176;2023-02-13T08:43:32;4.50;99.90
17442;DHT22;8838;50.144;8.176;2023-02-13T08:45:59;4.50;99.90
17442;DHT22;8838;50.144;8.176;2023-02-13T08:48:26;4.70;99.90
17442;DHT22;8838;50.144;8.176;2023-02-13T08:50:53;5.00;99.90
17442;DHT22;8838;50.144;8.176;2023-02-13T08:53:20;6.20;99.90
17442;DHT22;8838;50.144;8.176;2023-02-13T08:55:55;7.90;99.90
17442;DHT22;8838;50.144;8.176;2023-02-13T08:58:23;9.40;99.90
17442;DHT22;8838;50.144;8.176;2023-02-13T09:00:49;10.70;99.90
17442;DHT22;8838;50.144;8.176;2023-02-13T09:03:16;12.20;99.90
17442;DHT22;8838;50.144;8.176;2023-02-13T09:05:43;13.40;99.90
17442;DHT22;8838;50.144;8.176;2023-02-13T09:08:12;13.80;99.90
17442;DHT22;8838;50.144;8.176;2023-02-13T09:10:40;14.40;99.90
17442;DHT22;8838;50.144;8.176;2023-02-13T09:13:09;15.50;99.90
17442;DHT22;8838;50.144;8.176;2023-02-13T09:15:37;15.00;99.90
17442;DHT22;8838;50.144;8.176;2023-02-13T09:18:05;15.90;99.90
17442;DHT22;8838;50.144;8.176;2023-02-13T09:20:31;16.20;99.90
17442;DHT22;8838;50.144;8.176;2023-02-13T09:22:58;16.50;99.90
17442;DHT22;8838;50.144;8.176;2023-02-13T09:25:25;16.50;99.90
17442;DHT22;8838;50.144;8.176;2023-02-13T09:27:52;16.40;99.90
17442;DHT22;8838;50.144;8.176;2023-02-13T09:30:20;16.50;99.90
17442;DHT22;8838;50.144;8.176;2023-02-13T09:32:50;16.70;99.90
17442;DHT22;8838;50.144;8.176;2023-02-13T09:35:17;17.00;99.90
17442;DHT22;8838;50.144;8.176;2023-02-13T09:37:44;16.70;99.90
17442;DHT22;8838;50.144;8.176;2023-02-13T09:40:24;16.00;99.90
17442;DHT22;8838;50.144;8.176;2023-02-13T09:42:57;16.00;99.90
17442;DHT22;8838;50.144;8.176;2023-02-13T09:45:30;15.40;99.90
17442;DHT22;8838;50.144;8.176;2023-02-13T09:47:58;16.00;99.90
17442;DHT22;8838;50.144;8.176;2023-02-13T09:50:29;16.50;99.90
17442;DHT22;8838;50.144;8.176;2023-02-13T09:52:58;17.40;99.90
17442;DHT22;8838;50.144;8.176;2023-02-13T09:55:29;17.90;99.90
17442;DHT22;8838;50.144;8.176;2023-02-13T09:58:10;17.10;99.90
17442;DHT22;8838;50.144;8.176;2023-02-13T10:00:45;17.00;99.90
17442;DHT22;8838;50.144;8.176;2023-02-13T10:03:28;16.70;99.90
17442;DHT22;8838;50.144;8.176;2023-02-13T10:06:01;15.90;99.90
17442;DHT22;8838;50.144;8.176;2023-02-13T10:08:52;15.10;99.90
17442;DHT22;8838;50.144;8.176;2023-02-13T10:11:35;14.70;99.90
17442;DHT22;8838;50.144;8.176;2023-02-13T10:14:10;14.70;99.90
17442;DHT22;8838;50.144;8.176;2023-02-13T10:16:44;15.20;99.90
17442;DHT22;8838;50.144;8.176;2023-02-13T10:19:21;15.80;99.90
17442;DHT22;8838;50.144;8.176;2023-02-13T10:21:52;16.50;99.90
17442;DHT22;8838;50.144;8.176;2023-02-13T10:24:28;16.40;99.90
17442;DHT22;8838;50.144;8.176;2023-02-13T10:26:57;16.30;99.90
17442;DHT22;8838;50.144;8.176;2023-02-13T10:29:35;16.50;99.90
17442;DHT22;8838;50.144;8.176;2023-02-13T10:32:24;16.70;99.90
17442;DHT22;8838;50.144;8.176;2023-02-13T10:34:53;16.70;99.90
17442;DHT22;8838;50.144;8.176;2023-02-13T10:37:21;16.20;99.90
17442;DHT22;8838;50.144;8.176;2023-02-13T10:39:51;15.50;99.90
17442;DHT22;8838;50.144;8.176;2023-02-13T10:42:20;14.80;99.90
17442;DHT22;8838;50.144;8.176;2023-02-13T10:45:02;14.80;99.90
17442;DHT22;8838;50.144;8.176;2023-02-13T10:47:59;14.60;99.90
17442;DHT22;8838;50.144;8.176;2023-02-13T10:50:33;14.80;99.90
17442;DHT22;8838;50.144;8.176;2023-02-13T10:53:10;15.10;99.90
17442;DHT22;8838;50.144;8.176;2023-02-13T10:56:05;15.20;99.90
17442;DHT22;8838;50.144;8.176;2023-02-13T10:58:57;15.40;99.90
17442;DHT22;8838;50.144;8.176;2023-02-13T11:01:35;15.20;99.90
17442;DHT22;8838;50.144;8.176;2023-02-13T11:04:07;14.70;99.90
17442;DHT22;8838;50.144;8.176;2023-02-13T11:06:37;14.50;99.90
17442;DHT22;8838;50.144;8.176;2023-02-13T11:09:07;14.70;99.90
17442;DHT22;8838;50.144;8.176;2023-02-13T11:11:40;15.10;99.90
17442;DHT22;8838;50.144;8.176;2023-02-13T11:14:15;14.90;99.90
17442;DHT22;8838;50.144;8.176;2023-02-13T11:16:47;14.50;99.90
17442;DHT22;8838;50.144;8.176;2023-02-13T11:19:19;13.90;99.90
17442;DHT22;8838;50.144;8.176;2023-02-13T11:21:53;12.90;99.90
17442;DHT22;8838;50.144;8.176;2023-02-13T11:24:21;12.20;99.90
17442;DHT22;8838;50.144;8.176;2023-02-13T11:26:56;11.50;99.90
17442;DHT22;8838;50.144;8.176;2023-02-13T11:29:26;11.00;99.90
17442;DHT22;8838;50.144;8.176;2023-02-13T11:32:17;10.70;99.90
17442;DHT22;8838;50.144;8.176;2023-02-13T11:34:45;10.40;99.90
17442;DHT22;8838;50.144;8.176;2023-02-13T11:37:26;10.10;99.90
17442;DHT22;8838;50.144;8.176;2023-02-13T11:39:54;9.90;99.90
17442;DHT22;8838;50.144;8.176;2023-02-13T11:42:27;9.90;99.90
17442;DHT22;8838;50.144;8.176;2023-02-13T11:44:58;9.80;99.90
17442;DHT22;8838;50.144;8.176;2023-02-13T11:47:36;9.70;99.90
17442;DHT22;8838;50.144;8.176;2023-02-13T11:50:18;9.70;99.90
17442;DHT22;8838;50.144;8.176;2023-02-13T11:52:54;9.60;99.90
17442;DHT22;8838;50.144;8.176;2023-02-13T11:55:28;9.50;99.90
17442;DHT22;8838;50.144;8.176;2023-02-13T11:57:56;9.50;99.90
17442;DHT22;8838;50.144;8.176;2023-02-13T12:00:34;9.50;99.90
17442;DHT22;8838;50.144;8.176;2023-02-13T12:03:27;9.50;99.90
17442;DHT22;8838;50.144;8.176;2023-02-13T12:06:04;9.50;99.90
17442;DHT22;8838;50.144;8.176;2023-02-13T12:08:36;9.50;99.90
17442;DHT22;8838;50.144;8.176;2023-02-13T12:11:14;9.50;99.90
17442;DHT22;8838;50.144;8.176;2023-02-13T12:13:43;9.50;99.90
17442;DHT22;8838;50.144;8.176;2023-02-13T12:16:15;9.50;99.90
17442;DHT22;8838;50.144;8.176;2023-02-13T12:18:44;9.50;99.90
17442;DHT22;8838;50.144;8.176;2023-02-13T12:21:23;9.60;99.90
17442;DHT22;8838;50.144;8.176;2023-02-13T12:23:56;9.70;99.90
17442;DHT22;8838;50.144;8.176;2023-02-13T12:26:31;9.70;99.90
17442;DHT22;8838;50.144;8.176;2023-02-13T12:29:20;9.60;99.90
17442;DHT22;8838;50.144;8.176;2023-02-13T12:31:57;9.60;99.90
17442;DHT22;8838;50.144;8.176;2023-02-13T12:34:51;9.70;99.90
17442;DHT22;8838;50.144;8.176;2023-02-13T12:37:38;9.70;99.90
17442;DHT22;8838;50.144;8.176;2023-02-13T12:40:28;9.60;99.90
17442;DHT22;8838;50.144;8.176;2023-02-13T12:43:14;9.80;99.90
17442;DHT22;8838;50.144;8.176;2023-02-13T12:45:51;9.80;99.90
17442;DHT22;8838;50.144;8.176;2023-02-13T12:48:28;9.80;99.90
17442;DHT22;8838;50.144;8.176;2023-02-13T12:51:10;9.70;99.90
17442;DHT22;8838;50.144;8.176;2023-02-13T12:54:12;9.80;99.90
17442;DHT22;8838;50.144;8.176;2023-02-13T12:56:55;9.70;99.90
17442;DHT22;8838;50.144;8.176;2023-02-13T12:59:32;9.70;99.90
17442;DHT22;8838;50.144;8.176;2023-02-13T13:02:33;9.70;99.90
17442;DHT22;8838;50.144;8.176;2023-02-13T13:05:16;9.70;99.90
17442;DHT22;8838;50.144;8.176;2023-02-13T13:07:57;9.80;99.90
17442;DHT22;8838;50.144;8.176;2023-02-13T13:10:38;9.80;99.90
17442;DHT22;8838;50.144;8.176;2023-02-13T13:13:16;9.80;99.90
17442;DHT22;8838;50.144;8.176;2023-02-13T13:15:54;9.90;99.90
17442;DHT22;8838;50.144;8.176;2023-02-13T13:18:34;10.00;99.90
17442;DHT22;8838;50.144;8.176;2023-02-13T13:21:13;10.10;99.90
17442;DHT22;8838;50.144;8.176;2023-02-13T13:23:46;10.10;99.90
17442;DHT22;8838;50.144;8.176;2023-02-13T13:26:21;10.10;99.90
17442;DHT22;8838;50.144;8.176;2023-02-13T13:28:53;10.10;99.90
17442;DHT22;8838;50.144;8.176;2023-02-13T13:31:23;10.10;99.90
17442;DHT22;8838;50.144;8.176;2023-02-13T13:33:51;10.10;99.90
17442;DHT22;8838;50.144;8.176;2023-02-13T13:36:28;10.10;99.90
17442;DHT22;8838;50.144;8.176;2023-02-13T13:39:05;10.10;99.90
17442;DHT22;8838;50.144;8.176;2023-02-13T13:41:41;10.20;99.90
17442;DHT22;8838;50.144;8.176;2023-02-13T13:44:24;10.20;99.90
17442;DHT22;8838;50.144;8.176;2023-02-13T13:46:58;10.20;99.90
17442;DHT22;8838;50.144;8.176;2023-02-13T13:49:36;10.20;99.90
17442;DHT22;8838;50.144;8.176;2023-02-13T13:52:20;10.20;99.90
17442;DHT22;8838;50.144;8.176;2023-02-13T13:54:47;10.10;99.90
17442;DHT22;8838;50.144;8.176;2023-02-13T13:57:18;10.00;99.90
17442;DHT22;8838;50.144;8.176;2023-02-13T14:05:32;9.90;99.90
17442;DHT22;8838;50.144;8.176;2023-02-13T14:08:01;10.00;99.90
17442;DHT22;8838;50.144;8.176;2023-02-13T14:10:59;10.00;99.90
17442;DHT22;8838;50.144;8.176;2023-02-13T14:13:30;10.00;99.90
17442;DHT22;8838;50.144;8.176;2023-02-13T14:15:58;10.10;99.90
17442;DHT22;8838;50.144;8.176;2023-02-13T14:18:26;10.10;99.90
17442;DHT22;8838;50.144;8.176;2023-02-13T14:20:55;10.20;99.90
17442;DHT22;8838;50.144;8.176;2023-02-13T14:23:42;10.30;99.90
17442;DHT22;8838;50.144;8.176;2023-02-13T14:26:34;10.40;99.90
17442;DHT22;8838;50.144;8.176;2023-02-13T14:32:12;10.90;99.90
17442;DHT22;8838;50.144;8.176;2023-02-13T14:34:41;11.20;99.90
17442;DHT22;8838;50.144;8.176;2023-02-13T14:37:17;11.50;99.90
17442;DHT22;8838;50.144;8.176;2023-02-13T14:40:26;11.60;99.90
17442;DHT22;8838;50.144;8.176;2023-02-13T14:42:55;11.90;99.90
17442;DHT22;8838;50.144;8.176;2023-02-13T14:45:27;12.10;99.90
17442;DHT22;8838;50.144;8.176;2023-02-13T14:47:56;12.30;99.90
17442;DHT22;8838;50.144;8.176;2023-02-13T14:50:26;12.40;99.90
17442;DHT22;8838;50.144;8.176;2023-02-13T14:52:54;12.40;99.90
17442;DHT22;8838;50.144;8.176;2023-02-13T14:55:31;12.40;99.90
17442;DHT22;8838;50.144;8.176;2023-02-13T14:58:05;12.40;99.90
17442;DHT22;8838;50.144;8.176;2023-02-13T15:00:38;12.50;99.90
17442;DHT22;8838;50.144;8.176;2023-02-13T15:03:18;12.50;99.90
17442;DHT22;8838;50.144;8.176;2023-02-13T15:05:49;12.40;99.90
17442;DHT22;8838;50.144;8.176;2023-02-13T15:08:19;12.40;99.90
17442;DHT22;8838;50.144;8.176;2023-02-13T15:10:48;12.30;99.90
17442;DHT22;8838;50.144;8.176;2023-02-13T15:13:17;12.20;99.90
17442;DHT22;8838;50.144;8.176;2023-02-13T15:15:51;12.10;99.90
17442;DHT22;8838;50.144;8.176;2023-02-13T15:18:20;11.80;99.90
17442;DHT22;8838;50.144;8.176;2023-02-13T15:20:48;11.60;99.90
17442;DHT22;8838;50.144;8.176;2023-02-13T15:23:20;11.40;99.90
17442;DHT22;8838;50.144;8.176;2023-02-13T15:25:47;11.10;99.90
17442;DHT22;8838;50.144;8.176;2023-02-13T15:28:22;11.00;99.90
17442;DHT22;8838;50.144;8.176;2023-02-13T15:30:56;10.80;99.90
17442;DHT22;8838;50.144;8.176;2023-02-13T15:33:25;10.70;99.90
17442;DHT22;8838;50.144;8.176;2023-02-13T15:36:00;10.50;99.90
17442;DHT22;8838;50.144;8.176;2023-02-13T15:38:28;10.40;99.90
17442;DHT22;8838;50.144;8.176;2023-02-13T15:40:58;10.20;99.90
17442;DHT22;8838;50.144;8.176;2023-02-13T15:43:31;10.10;99.90
17442;DHT22;8838;50.144;8.176;2023-02-13T15:46:03;10.00;99.90
17442;DHT22;8838;50.144;8.176;2023-02-13T15:48:32;9.90;99.90
17442;DHT22;8838;50.144;8.176;2023-02-13T15:51:00;9.90;99.90
17442;DHT22;8838;50.144;8.176;2023-02-13T15:53:28;9.80;99.90
17442;DHT22;8838;50.144;8.176;2023-02-13T15:55:57;9.70;99.90
17442;DHT22;8838;50.144;8.176;2023-02-13T15:58:28;9.70;99.90
17442;DHT22;8838;50.144;8.176;2023-02-13T16:00:56;9.50;99.90
17442;DHT22;8838;50.144;8.176;2023-02-13T16:03:26;9.40;99.90
17442;DHT22;8838;50.144;8.176;2023-02-13T16:05:54;9.30;99.90
17442;DHT22;8838;50.144;8.176;2023-02-13T16:08:30;9.30;99.90
17442;DHT22;8838;50.144;8.176;2023-02-13T16:11:25;9.20;99.90
17442;DHT22;8838;50.144;8.176;2023-02-13T16:14:05;9.30;99.90
17442;DHT22;8838;50.144;8.176;2023-02-13T16:16:39;9.30;99.90
17442;DHT22;8838;50.144;8.176;2023-02-13T16:19:27;9.20;99.90
17442;DHT22;8838;50.144;8.176;2023-02-13T16:21:55;9.10;99.90
17442;DHT22;8838;50.144;8.176;2023-02-13T16:24:24;9.00;99.90
17442;DHT22;8838;50.144;8.176;2023-02-13T16:26:52;8.90;99.90
17442;DHT22;8838;50.144;8.176;2023-02-13T16:29:21;8.80;99.90
17442;DHT22;8838;50.144;8.176;2023-02-13T16:31:49;8.70;99.90
17442;DHT22;8838;50.144;8.176;2023-02-13T16:34:24;8.60;99.90
17442;DHT22;8838;50.144;8.176;2023-02-13T16:36:52;8.40;99.90
17442;DHT22;8838;50.144;8.176;2023-02-13T16:39:21;8.20;99.90
17442;DHT22;8838;50.144;8.176;2023-02-13T16:41:48;8.10;99.90
17442;DHT22;8838;50.144;8.176;2023-02-13T16:44:27;7.90;99.90
17442;DHT22;8838;50.144;8.176;2023-02-13T16:46:56;7.90;99.90
17442;DHT22;8838;50.144;8.176;2023-02-13T16:49:26;7.80;99.90